createdAt,value
2019-03-02T00:00:23.966Z,80.00
2019-03-02T00:03:07.440Z,81.80
2019-03-02T00:05:38.925Z,83.10
2019-03-02T00:08:13.459Z,84.90
2019-03-02T00:10:48.349Z,86.90
2019-03-02T00:13:18.541Z,88.60
2019-03-02T00:15:48.695Z,86.10
2019-03-02T00:18:19.882Z,86.90
2019-03-02T00:20:55.630Z,83.80
2019-03-02T00:23:29.833Z,84.50
2019-03-02T00:26:06.245Z,87.40
2019-03-02T00:28:36.500Z,84.40
2019-03-02T00:31:08.998Z,84.00
2019-03-02T00:33:42.496Z,83.00
2019-03-02T00:36:19.398Z,82.90
2019-03-02T00:38:48.432Z,81.80
2019-03-02T00:41:31.006Z,83.60
2019-03-02T00:44:09.171Z,84.70
2019-03-02T00:46:39.342Z,85.90
2019-03-02T00:49:10.665Z,88.10
2019-03-02T00:51:42.693Z,88.20
2019-03-02T00:54:14.779Z,86.40
2019-03-02T00:56:57.247Z,89.00
2019-03-02T00:59:39.403Z,90.50
2019-03-02T01:02:08.787Z,89.20
2019-03-02T01:04:41.741Z,89.80
2019-03-02T01:07:12.219Z,90.40
2019-03-02T01:09:43.613Z,90.10
2019-03-02T01:12:16.744Z,90.40
2019-03-02T01:14:47.880Z,88.90
2019-03-02T01:17:19.205Z,87.90
2019-03-02T01:19:52.701Z,88.20
2019-03-02T01:22:22.481Z,90.30
2019-03-02T01:24:55.613Z,90.30
2019-03-02T01:27:27.386Z,90.10
2019-03-02T01:30:00.714Z,90.20
2019-03-02T01:32:34.014Z,89.20
2019-03-02T01:35:04.502Z,90.00
2019-03-02T01:37:36.078Z,90.20
2019-03-02T01:40:10.119Z,89.60
2019-03-02T01:42:45.260Z,88.90
2019-03-02T01:45:15.903Z,88.70
2019-03-02T01:47:51.146Z,88.20
2019-03-02T01:50:21.215Z,88.00
2019-03-02T01:52:54.470Z,86.20
2019-03-02T01:55:27.884Z,88.70
2019-03-02T01:57:58.526Z,86.20
2019-03-02T02:00:30.626Z,86.20
2019-03-02T02:03:03.662Z,85.50
2019-03-02T02:05:35.851Z,83.30
2019-03-02T02:08:07.171Z,84.90
2019-03-02T02:10:39.969Z,86.10
2019-03-02T02:13:11.605Z,84.00
2019-03-02T02:15:41.881Z,86.10
2019-03-02T02:18:13.519Z,84.50
2019-03-02T02:20:46.890Z,85.80
2019-03-02T02:23:20.435Z,85.90
2019-03-02T02:25:53.579Z,88.10
2019-03-02T02:28:29.112Z,89.10
2019-03-02T02:31:01.905Z,87.30
2019-03-02T02:33:31.572Z,87.20
2019-03-02T02:36:04.369Z,85.30
2019-03-02T02:38:36.059Z,79.70
2019-03-02T02:41:07.808Z,80.60
2019-03-02T02:43:38.476Z,82.20
2019-03-02T02:46:08.637Z,82.90
2019-03-02T02:48:41.387Z,83.00
2019-03-02T02:51:14.385Z,78.00
2019-03-02T02:53:46.922Z,77.20
2019-03-02T02:56:19.942Z,78.70
2019-03-02T02:58:56.155Z,76.90
2019-03-02T03:01:33.760Z,76.50
2019-03-02T03:04:04.299Z,78.80
2019-03-02T03:06:35.804Z,74.20
2019-03-02T03:09:20.163Z,76.90
2019-03-02T03:11:50.315Z,74.50
2019-03-02T03:14:21.582Z,78.00
2019-03-02T03:16:54.207Z,78.50
2019-03-02T03:19:31.015Z,77.70
2019-03-02T03:22:07.374Z,76.70
2019-03-02T03:24:39.965Z,77.40
2019-03-02T03:27:13.334Z,78.30
2019-03-02T03:29:44.392Z,78.50
2019-03-02T03:32:16.185Z,74.50
2019-03-02T03:34:49.255Z,78.50
2019-03-02T03:37:21.350Z,76.10
2019-03-02T03:39:53.162Z,76.10
2019-03-02T03:42:24.883Z,75.80
2019-03-02T03:44:59.764Z,74.80
2019-03-02T03:47:34.082Z,74.00
2019-03-02T03:50:09.304Z,75.40
2019-03-02T03:52:37.915Z,77.30
2019-03-02T03:55:11.488Z,79.40
2019-03-02T03:57:44.652Z,76.20
2019-03-02T04:00:19.574Z,78.40
2019-03-02T04:02:51.617Z,78.10
2019-03-02T04:05:21.860Z,77.60
2019-03-02T04:07:52.078Z,76.40
2019-03-02T04:10:25.956Z,76.70
2019-03-02T04:12:54.147Z,80.50
2019-03-02T04:15:26.075Z,80.90
2019-03-02T04:17:57.479Z,79.90
2019-03-02T04:20:37.719Z,79.10
2019-03-02T04:23:10.581Z,80.40
2019-03-02T04:25:42.386Z,77.60
2019-03-02T04:28:15.844Z,78.10
2019-03-02T04:30:47.616Z,76.80
2019-03-02T04:33:18.278Z,79.10
2019-03-02T04:35:50.380Z,78.00
2019-03-02T04:38:21.379Z,76.70
2019-03-02T04:40:51.522Z,78.80
2019-03-02T04:43:23.721Z,80.20
2019-03-02T04:45:56.281Z,82.10
2019-03-02T04:48:26.455Z,79.30
2019-03-02T04:50:59.589Z,78.50
2019-03-02T04:53:32.994Z,77.60
2019-03-02T04:56:09.458Z,77.50
2019-03-02T04:58:43.621Z,77.30
2019-03-02T05:01:14.328Z,79.60
2019-03-02T05:03:58.073Z,77.90
2019-03-02T05:06:28.923Z,79.20
2019-03-02T05:09:01.929Z,79.60
2019-03-02T05:11:35.467Z,82.10
2019-03-02T05:16:40.770Z,80.70
2019-03-02T05:19:13.632Z,80.00
2019-03-02T05:21:44.457Z,78.90
2019-03-02T05:24:14.999Z,78.90
2019-03-02T05:26:47.533Z,76.70
2019-03-02T05:29:19.863Z,79.00
2019-03-02T05:31:50.860Z,73.10
2019-03-02T05:34:28.281Z,75.60
2019-03-02T05:37:02.895Z,77.70
2019-03-02T05:39:32.722Z,78.70
2019-03-02T05:42:03.220Z,76.70
2019-03-02T05:44:33.663Z,75.70
2019-03-02T05:47:04.395Z,75.10
2019-03-02T05:49:36.085Z,75.80
2019-03-02T05:52:08.842Z,76.10
2019-03-02T05:54:42.432Z,75.40
2019-03-02T05:57:13.585Z,75.30
2019-03-02T05:59:47.445Z,73.10
2019-03-02T06:02:19.737Z,73.80
2019-03-02T06:04:53.657Z,75.50
2019-03-02T06:07:29.780Z,75.40
2019-03-02T06:10:01.300Z,71.90
2019-03-02T06:12:31.816Z,74.80
2019-03-02T06:15:04.053Z,71.90
2019-03-02T06:17:35.001Z,74.60
2019-03-02T06:20:05.622Z,74.00
2019-03-02T06:25:19.877Z,74.10
2019-03-02T06:27:49.796Z,74.20
2019-03-02T06:30:21.834Z,76.50
2019-03-02T06:32:52.837Z,76.20
2019-03-02T06:35:24.980Z,76.00
2019-03-02T06:38:06.789Z,78.10
2019-03-02T06:41:00.272Z,77.20
2019-03-02T06:43:32.097Z,78.20
2019-03-02T06:46:44.598Z,75.70
2019-03-02T06:50:04.770Z,76.60
2019-03-02T06:52:35.839Z,76.60
2019-03-02T06:55:28.119Z,77.00
2019-03-02T06:58:11.957Z,77.40
2019-03-02T07:00:45.584Z,74.70
2019-03-02T07:03:28.460Z,76.00
2019-03-02T07:06:04.269Z,76.30
2019-03-02T07:08:36.358Z,73.80
2019-03-02T07:11:07.963Z,76.80
2019-03-02T07:13:41.680Z,75.00
2019-03-02T07:16:20.056Z,72.30
2019-03-02T07:22:41.600Z,70.20
2019-03-02T07:33:23.011Z,73.40
2019-03-02T07:36:02.183Z,76.60
2019-03-02T07:39:15.729Z,79.10
2019-03-02T07:41:54.213Z,78.70
2019-03-02T07:44:27.958Z,82.80
2019-03-02T07:47:03.607Z,83.00
2019-03-02T07:54:18.587Z,83.10
2019-03-02T08:07:11.521Z,82.10
2019-03-02T08:10:06.506Z,80.20
2019-03-02T08:12:41.444Z,79.30
2019-03-02T08:15:27.868Z,78.60
2019-03-02T08:25:50.975Z,76.30
2019-03-02T08:28:22.965Z,79.70
2019-03-02T08:34:56.140Z,74.30
2019-03-02T08:37:29.924Z,76.20
2019-03-02T08:40:01.909Z,73.50
2019-03-02T08:42:32.095Z,70.60
2019-03-02T08:45:53.939Z,72.10
2019-03-02T08:48:26.782Z,72.20
2019-03-02T08:50:56.949Z,71.40
2019-03-02T08:53:27.408Z,74.20
2019-03-02T08:56:00.513Z,70.80
2019-03-02T08:58:43.323Z,70.30
2019-03-02T09:01:18.708Z,70.50
2019-03-02T09:03:51.797Z,67.50
2019-03-02T09:06:42.657Z,67.90
2019-03-02T09:10:03.706Z,67.20
2019-03-02T09:13:01.275Z,67.40
2019-03-02T09:20:03.965Z,67.40
2019-03-02T09:22:36.558Z,65.40
2019-03-02T09:25:19.992Z,69.30
2019-03-02T09:28:46.855Z,65.30
2019-03-02T09:31:54.191Z,66.60
2019-03-02T09:34:37.080Z,69.50
2019-03-02T09:37:10.431Z,68.20
2019-03-02T09:39:51.539Z,68.20
2019-03-02T09:42:21.130Z,67.60
2019-03-02T10:07:25.193Z,68.70
2019-03-02T10:13:51.093Z,64.70
2019-03-02T10:16:25.687Z,64.30
2019-03-02T10:19:07.001Z,61.60
2019-03-02T10:21:39.831Z,61.30
2019-03-02T10:24:13.579Z,61.90
2019-03-02T10:26:46.222Z,64.80
2019-03-02T10:29:19.085Z,65.20
2019-03-02T10:31:59.143Z,63.30
2019-03-02T10:37:43.753Z,55.00
2019-03-02T10:40:19.119Z,54.60
2019-03-02T10:42:59.816Z,52.20
2019-03-02T10:45:52.010Z,49.30
2019-03-02T10:48:22.771Z,52.80
2019-03-02T10:50:55.889Z,51.90
2019-03-02T10:53:27.496Z,47.90
2019-03-02T10:56:12.054Z,47.10
2019-03-02T10:59:04.148Z,52.70
2019-03-02T11:01:43.604Z,48.00
2019-03-02T11:04:48.993Z,49.40
2019-03-02T11:07:54.589Z,51.30
2019-03-02T11:10:59.948Z,48.00
2019-03-02T11:13:51.833Z,50.10
2019-03-02T11:16:44.601Z,45.60
2019-03-02T11:19:38.977Z,47.60
2019-03-02T11:22:38.577Z,49.10
2019-03-02T11:25:23.065Z,46.30
2019-03-02T11:28:10.931Z,44.50
2019-03-02T11:31:02.826Z,42.20
2019-03-02T11:33:46.686Z,43.10
2019-03-02T11:36:35.509Z,40.60
2019-03-02T11:39:28.359Z,44.20
2019-03-02T11:42:10.368Z,47.40
2019-03-02T11:45:02.232Z,42.70
2019-03-02T11:47:58.325Z,42.60
2019-03-02T11:51:03.349Z,45.60
2019-03-02T11:53:53.155Z,41.80
2019-03-02T11:56:46.465Z,44.70
2019-03-02T11:59:45.307Z,42.20
2019-03-02T12:02:35.357Z,43.70
2019-03-02T12:05:25.053Z,45.60
2019-03-02T12:08:11.243Z,43.60
2019-03-02T12:10:51.374Z,40.80
2019-03-02T12:13:34.849Z,41.50
2019-03-02T12:16:26.444Z,40.60
2019-03-02T12:19:20.046Z,40.30
2019-03-02T12:22:07.167Z,40.30
2019-03-02T12:24:58.482Z,35.30
2019-03-02T12:27:55.075Z,35.60
2019-03-02T12:30:42.707Z,32.10
2019-03-02T12:33:38.198Z,35.50
2019-03-02T12:36:17.850Z,34.50
2019-03-02T12:38:55.057Z,34.90
2019-03-02T12:41:48.948Z,34.90
2019-03-02T12:44:32.330Z,33.70
2019-03-02T12:47:24.098Z,33.40
2019-03-02T12:50:13.261Z,33.70
2019-03-02T12:53:05.868Z,35.20
2019-03-02T12:55:56.972Z,31.30
2019-03-02T12:58:37.613Z,32.40
2019-03-02T13:01:20.072Z,29.00
2019-03-02T13:04:10.505Z,29.20
2019-03-02T13:07:03.582Z,29.10
2019-03-02T13:09:55.927Z,28.50
2019-03-02T13:12:39.150Z,28.50
2019-03-02T13:15:42.249Z,29.20
2019-03-02T13:18:25.946Z,28.60
2019-03-02T13:21:16.222Z,29.50
2019-03-02T13:24:08.615Z,28.50
2019-03-02T13:26:50.188Z,29.40
2019-03-02T13:29:45.231Z,29.20
2019-03-02T13:32:56.015Z,29.90
2019-03-02T13:35:47.089Z,29.40
2019-03-02T13:38:39.510Z,30.70
2019-03-02T13:41:31.689Z,29.40
2019-03-02T13:44:21.346Z,30.40
2019-03-02T13:47:10.574Z,30.80
2019-03-02T13:50:10.008Z,29.60
2019-03-02T13:57:01.124Z,30.20
2019-03-02T14:00:03.626Z,29.60
2019-03-02T14:03:10.660Z,29.70
2019-03-02T14:05:55.836Z,28.60
2019-03-02T14:08:39.775Z,29.40
2019-03-02T14:11:39.684Z,29.30
2019-03-02T14:14:31.739Z,30.60
2019-03-02T14:17:24.263Z,29.30
2019-03-02T14:20:20.652Z,30.00
2019-03-02T14:23:02.936Z,32.60
2019-03-02T14:25:56.178Z,31.50
2019-03-02T14:28:54.762Z,32.70
2019-03-02T14:31:48.888Z,32.40
2019-03-02T14:34:36.516Z,34.90
2019-03-02T14:37:13.897Z,34.70
2019-03-02T14:39:58.871Z,33.00
2019-03-02T14:42:58.729Z,32.70
2019-03-02T14:45:34.761Z,34.40
2019-03-02T14:48:27.258Z,32.40
2019-03-02T14:51:20.777Z,33.60
2019-03-02T14:54:09.213Z,32.50
2019-03-02T14:56:53.901Z,32.50
2019-03-02T14:59:39.228Z,33.20
2019-03-02T15:02:28.174Z,34.10
2019-03-02T15:05:20.159Z,30.90
2019-03-02T15:08:01.191Z,30.00
2019-03-02T15:10:53.506Z,29.20
2019-03-02T15:13:42.669Z,29.30
2019-03-02T15:16:26.156Z,30.20
2019-03-02T15:19:15.639Z,29.00
2019-03-02T15:22:08.228Z,29.50
2019-03-02T15:24:56.545Z,31.00
2019-03-02T15:27:40.456Z,28.40
2019-03-02T15:30:29.192Z,26.60
2019-03-02T15:33:19.271Z,27.30
2019-03-02T15:36:15.501Z,26.60
2019-03-02T15:39:16.662Z,26.00
2019-03-02T15:42:13.901Z,25.90
2019-03-02T15:44:50.781Z,26.80
2019-03-02T15:47:47.409Z,27.90
2019-03-02T15:50:37.287Z,28.50
2019-03-02T15:53:32.720Z,29.20
2019-03-02T15:56:23.405Z,29.10
2019-03-02T15:59:16.448Z,29.20
2019-03-02T16:02:19.135Z,29.40
2019-03-02T16:05:12.457Z,30.20
2019-03-02T16:08:05.143Z,30.00
2019-03-02T16:10:53.655Z,30.50
2019-03-02T16:13:50.139Z,31.60
2019-03-02T16:16:42.892Z,31.50
2019-03-02T16:19:52.961Z,31.80
2019-03-02T16:22:37.688Z,31.20
2019-03-02T16:28:21.911Z,30.10
2019-03-02T16:31:28.746Z,31.20
2019-03-02T16:34:12.635Z,32.90
2019-03-02T16:37:00.494Z,31.50
2019-03-02T16:39:42.770Z,31.10
2019-03-02T16:42:20.455Z,33.30
2019-03-02T16:44:58.907Z,31.50
2019-03-02T16:47:44.976Z,33.90
2019-03-02T16:50:35.639Z,33.50
2019-03-02T16:53:39.764Z,33.60
2019-03-02T16:56:44.545Z,33.60
2019-03-02T16:59:45.334Z,34.30
2019-03-02T17:02:34.833Z,32.40
2019-03-02T17:05:14.679Z,32.60
2019-03-02T17:08:10.011Z,34.20
2019-03-02T17:11:01.004Z,33.30
2019-03-02T17:13:51.831Z,35.20
2019-03-02T17:16:47.000Z,35.50
2019-03-02T17:19:36.178Z,35.50
2019-03-02T17:22:32.481Z,35.80
2019-03-02T17:25:13.551Z,36.80
2019-03-02T17:28:04.763Z,37.60
2019-03-02T17:30:58.203Z,38.00
2019-03-02T17:33:54.144Z,38.00
2019-03-02T17:36:41.625Z,38.90
2019-03-02T17:39:39.356Z,38.40
2019-03-02T17:42:28.097Z,38.90
2019-03-02T17:45:21.204Z,38.80
2019-03-02T17:48:05.035Z,39.90
2019-03-02T17:50:45.579Z,40.80
2019-03-02T17:53:29.326Z,40.80
2019-03-02T17:56:23.109Z,41.30
2019-03-02T17:59:11.548Z,40.90
2019-03-02T18:02:05.017Z,41.40
2019-03-02T18:04:53.313Z,41.90
2019-03-02T18:07:38.605Z,41.70
2019-03-02T18:10:29.602Z,41.70
2019-03-02T18:13:09.692Z,43.30
2019-03-02T18:16:05.850Z,41.50
2019-03-02T18:18:36.533Z,42.80
2019-03-02T18:21:07.979Z,42.20
2019-03-02T18:23:39.817Z,42.00
2019-03-02T18:26:11.214Z,42.20
2019-03-02T18:28:41.637Z,42.40
2019-03-02T18:31:16.076Z,42.50
2019-03-02T18:33:56.150Z,42.00
2019-03-02T18:36:27.954Z,44.40
2019-03-02T18:38:58.183Z,42.80
2019-03-02T18:41:29.020Z,44.40
2019-03-02T18:44:02.603Z,44.20
2019-03-02T18:46:33.241Z,46.10
2019-03-02T18:49:23.437Z,45.00
2019-03-02T18:52:26.427Z,44.60
2019-03-02T18:54:56.601Z,44.50
2019-03-02T18:57:28.508Z,44.70
2019-03-02T19:00:08.270Z,45.50
2019-03-02T19:02:44.096Z,45.40
2019-03-02T19:05:41.320Z,45.80
2019-03-02T19:08:18.816Z,46.20
2019-03-02T19:11:02.107Z,45.20
2019-03-02T19:13:32.773Z,45.90
2019-03-02T19:16:03.036Z,45.80
2019-03-02T19:18:33.234Z,44.60
2019-03-02T19:21:03.419Z,45.30
2019-03-02T19:23:33.640Z,44.80
2019-03-02T19:26:04.069Z,44.60
2019-03-02T19:28:36.034Z,46.10
2019-03-02T19:31:06.244Z,44.60
2019-03-02T19:33:37.770Z,45.30
2019-03-02T19:36:07.944Z,45.20
2019-03-02T19:38:38.097Z,44.80
2019-03-02T19:41:09.239Z,45.30
2019-03-02T19:43:42.730Z,46.10
2019-03-02T19:46:14.116Z,46.90
2019-03-02T19:48:44.333Z,46.60
2019-03-02T19:51:15.272Z,47.50
2019-03-02T19:53:45.889Z,47.70
2019-03-02T19:56:16.902Z,48.80
2019-03-02T19:58:47.890Z,48.40
2019-03-02T20:01:18.129Z,49.00
2019-03-02T20:03:50.009Z,49.30
2019-03-02T20:06:21.503Z,49.90
2019-03-02T20:08:53.047Z,51.00
2019-03-02T20:11:25.439Z,51.90
2019-03-02T20:13:55.864Z,52.70
2019-03-02T20:16:27.919Z,53.40
2019-03-02T20:18:59.571Z,52.80
2019-03-02T20:21:30.890Z,53.20
2019-03-02T20:24:01.507Z,53.90
2019-03-02T20:26:34.149Z,54.50
2019-03-02T20:29:04.677Z,55.40
2019-03-02T20:31:35.989Z,55.70
2019-03-02T20:34:06.242Z,56.80
2019-03-02T20:36:37.614Z,57.50
2019-03-02T20:39:34.710Z,57.30
2019-03-02T20:42:05.155Z,57.70
2019-03-02T20:44:45.615Z,59.40
2019-03-02T20:47:15.913Z,58.20
2019-03-02T20:49:46.109Z,58.40
2019-03-02T20:52:18.423Z,59.20
2019-03-02T20:54:51.215Z,59.20
2019-03-02T20:57:25.688Z,61.20
2019-03-02T20:59:57.625Z,61.00
2019-03-02T21:02:28.746Z,62.20
2019-03-02T21:05:02.451Z,62.20
2019-03-02T21:07:32.610Z,62.10
2019-03-02T21:10:03.251Z,62.60
2019-03-02T21:12:33.847Z,61.90
2019-03-02T21:15:06.333Z,62.50
2019-03-02T21:17:38.396Z,62.20
2019-03-02T21:20:14.815Z,61.10
2019-03-02T21:22:45.276Z,61.30
2019-03-02T21:25:19.466Z,61.20
2019-03-02T21:27:51.542Z,60.60
2019-03-02T21:30:22.960Z,59.50
2019-03-02T21:32:55.533Z,60.50
2019-03-02T21:35:27.054Z,59.90
2019-03-02T21:37:58.200Z,61.20
2019-03-02T21:40:33.311Z,59.60
2019-03-02T21:43:03.594Z,59.70
2019-03-02T21:45:33.830Z,61.90
2019-03-02T21:48:04.896Z,61.50
2019-03-02T21:50:35.188Z,61.20
2019-03-02T21:53:06.019Z,62.20
2019-03-02T21:55:37.529Z,63.00
2019-03-02T21:58:09.739Z,63.10
2019-03-02T22:00:42.996Z,64.00
2019-03-02T22:03:13.537Z,63.00
2019-03-02T22:05:44.258Z,64.40
2019-03-02T22:08:15.032Z,64.30
2019-03-02T22:10:52.451Z,64.20
2019-03-02T22:13:22.696Z,63.60
2019-03-02T22:15:53.040Z,65.10
2019-03-02T22:18:24.771Z,65.90
2019-03-02T22:20:55.248Z,65.80
2019-03-02T22:23:27.178Z,65.40
2019-03-02T22:26:02.044Z,65.90
2019-03-02T22:28:34.775Z,65.20
2019-03-02T22:31:05.862Z,65.90
2019-03-02T22:33:38.701Z,65.60
2019-03-02T22:36:09.030Z,65.70
2019-03-02T22:38:40.863Z,66.10
2019-03-02T22:41:12.857Z,66.60
2019-03-02T22:43:44.464Z,67.50
2019-03-02T22:46:14.618Z,66.10
2019-03-02T22:48:45.161Z,67.50
2019-03-02T22:51:17.943Z,67.40
2019-03-02T22:53:50.199Z,67.20
2019-03-02T22:56:22.075Z,66.70
2019-03-02T22:58:51.339Z,67.50
2019-03-02T23:01:38.868Z,68.00
2019-03-02T23:04:10.073Z,68.10
2019-03-02T23:06:42.531Z,68.70
2019-03-02T23:09:15.426Z,68.60
2019-03-02T23:11:49.468Z,69.50
2019-03-02T23:14:22.617Z,71.00
2019-03-02T23:16:52.795Z,71.90
2019-03-02T23:19:24.753Z,73.70
2019-03-02T23:21:59.011Z,73.30
2019-03-02T23:24:29.743Z,71.40
2019-03-02T23:27:00.311Z,71.80
2019-03-02T23:29:32.207Z,72.90
2019-03-02T23:32:02.443Z,73.60
2019-03-02T23:34:37.124Z,73.00
2019-03-02T23:37:06.278Z,72.10
2019-03-02T23:39:38.047Z,72.10
2019-03-02T23:42:08.576Z,73.40
2019-03-02T23:44:38.723Z,72.00
2019-03-02T23:47:09.862Z,72.00
2019-03-02T23:49:40.204Z,72.60
2019-03-02T23:52:13.177Z,70.90
2019-03-02T23:54:43.381Z,70.50
2019-03-02T23:57:13.591Z,70.50
2019-03-02T23:59:43.806Z,70.90
